sensor_id;sensor_type;location;lat;lon;timestamp;temperature;humidity
10175;DHT22;18221;38.704;0.152;2022-10-03T00:00:25;20.10;99.90
10175;DHT22;18221;38.704;0.152;2022-10-03T00:11:57;20.10;99.90
10175;DHT22;18221;38.704;0.152;2022-10-03T00:14:43;20.10;99.90
10175;DHT22;18221;38.704;0.152;2022-10-03T00:17:24;20.10;99.90
10175;DHT22;18221;38.704;0.152;2022-10-03T00:20:02;20.10;99.90
10175;DHT22;18221;38.704;0.152;2022-10-03T00:22:56;20.10;99.90
10175;DHT22;18221;38.704;0.152;2022-10-03T00:25:35;20.10;99.90
10175;DHT22;18221;38.704;0.152;2022-10-03T00:28:20;20.10;99.90
10175;DHT22;18221;38.704;0.152;2022-10-03T00:31:12;20.10;99.90
10175;DHT22;18221;38.704;0.152;2022-10-03T00:33:56;20.10;99.90
10175;DHT22;18221;38.704;0.152;2022-10-03T00:36:40;20.20;99.90
10175;DHT22;18221;38.704;0.152;2022-10-03T00:39:30;20.10;99.90
10175;DHT22;18221;38.704;0.152;2022-10-03T00:42:43;20.10;99.90
10175;DHT22;18221;38.704;0.152;2022-10-03T00:49:46;20.20;99.90
10175;DHT22;18221;38.704;0.152;2022-10-03T00:53:12;20.10;99.90
10175;DHT22;18221;38.704;0.152;2022-10-03T00:56:16;20.10;99.90
10175;DHT22;18221;38.704;0.152;2022-10-03T00:59:10;20.10;99.90
10175;DHT22;18221;38.704;0.152;2022-10-03T01:01:49;20.10;99.90
10175;DHT22;18221;38.704;0.152;2022-10-03T01:04:37;20.00;99.90
10175;DHT22;18221;38.704;0.152;2022-10-03T01:07:27;20.00;99.90
10175;DHT22;18221;38.704;0.152;2022-10-03T01:10:12;20.00;99.90
10175;DHT22;18221;38.704;0.152;2022-10-03T01:13:07;20.00;99.90
10175;DHT22;18221;38.704;0.152;2022-10-03T01:15:53;20.00;99.90
10175;DHT22;18221;38.704;0.152;2022-10-03T01:18:33;19.90;99.90
10175;DHT22;18221;38.704;0.152;2022-10-03T01:21:17;19.90;99.90
10175;DHT22;18221;38.704;0.152;2022-10-03T01:27:14;19.90;99.90
10175;DHT22;18221;38.704;0.152;2022-10-03T01:29:55;19.80;99.90
10175;DHT22;18221;38.704;0.152;2022-10-03T01:32:48;19.80;99.90
10175;DHT22;18221;38.704;0.152;2022-10-03T01:35:29;19.80;99.90
10175;DHT22;18221;38.704;0.152;2022-10-03T01:38:12;19.80;99.90
10175;DHT22;18221;38.704;0.152;2022-10-03T01:40:52;19.70;99.90
10175;DHT22;18221;38.704;0.152;2022-10-03T01:43:35;19.70;99.90
10175;DHT22;18221;38.704;0.152;2022-10-03T01:46:16;19.60;99.90
10175;DHT22;18221;38.704;0.152;2022-10-03T01:48:54;19.70;99.90
10175;DHT22;18221;38.704;0.152;2022-10-03T01:51:35;19.70;99.90
10175;DHT22;18221;38.704;0.152;2022-10-03T01:54:18;19.70;99.90
10175;DHT22;18221;38.704;0.152;2022-10-03T01:56:59;19.70;99.90
10175;DHT22;18221;38.704;0.152;2022-10-03T01:59:35;19.70;99.90
10175;DHT22;18221;38.704;0.152;2022-10-03T02:02:20;19.60;99.90
10175;DHT22;18221;38.704;0.152;2022-10-03T02:05:01;19.60;99.90
10175;DHT22;18221;38.704;0.152;2022-10-03T02:07:41;19.60;99.90
10175;DHT22;18221;38.704;0.152;2022-10-03T02:10:25;19.70;99.90
10175;DHT22;18221;38.704;0.152;2022-10-03T02:13:11;19.70;99.90
10175;DHT22;18221;38.704;0.152;2022-10-03T02:15:54;19.70;99.90
10175;DHT22;18221;38.704;0.152;2022-10-03T02:18:37;19.70;99.90
10175;DHT22;18221;38.704;0.152;2022-10-03T02:21:16;19.70;99.90
10175;DHT22;18221;38.704;0.152;2022-10-03T02:23:47;19.70;99.90
10175;DHT22;18221;38.704;0.152;2022-10-03T02:26:44;19.60;99.90
10175;DHT22;18221;38.704;0.152;2022-10-03T02:30:04;19.60;99.90
10175;DHT22;18221;38.704;0.152;2022-10-03T02:33:06;19.60;99.90
10175;DHT22;18221;38.704;0.152;2022-10-03T02:36:17;19.60;99.90
10175;DHT22;18221;38.704;0.152;2022-10-03T02:42:47;19.70;99.90
10175;DHT22;18221;38.704;0.152;2022-10-03T02:53:33;19.80;99.90
10175;DHT22;18221;38.704;0.152;2022-10-03T02:56:50;19.80;99.90
10175;DHT22;18221;38.704;0.152;2022-10-03T03:00:08;19.80;99.90
10175;DHT22;18221;38.704;0.152;2022-10-03T03:03:21;19.80;99.90
10175;DHT22;18221;38.704;0.152;2022-10-03T03:06:53;19.80;99.90
10175;DHT22;18221;38.704;0.152;2022-10-03T03:16:54;19.90;99.90
10175;DHT22;18221;38.704;0.152;2022-10-03T03:19:54;19.90;99.90
10175;DHT22;18221;38.704;0.152;2022-10-03T03:22:47;19.90;99.90
10175;DHT22;18221;38.704;0.152;2022-10-03T03:29:08;19.90;99.90
10175;DHT22;18221;38.704;0.152;2022-10-03T03:31:51;19.90;99.90
10175;DHT22;18221;38.704;0.152;2022-10-03T03:34:33;19.90;99.90
10175;DHT22;18221;38.704;0.152;2022-10-03T03:37:16;19.90;99.90
10175;DHT22;18221;38.704;0.152;2022-10-03T03:40:04;19.80;99.90
10175;DHT22;18221;38.704;0.152;2022-10-03T03:43:02;19.80;99.90
10175;DHT22;18221;38.704;0.152;2022-10-03T03:46:02;19.80;99.90
10175;DHT22;18221;38.704;0.152;2022-10-03T03:51:54;19.70;99.90
10175;DHT22;18221;38.704;0.152;2022-10-03T03:55:00;19.70;99.90
10175;DHT22;18221;38.704;0.152;2022-10-03T04:01:19;19.80;99.90
10175;DHT22;18221;38.704;0.152;2022-10-03T04:04:15;19.80;99.90
10175;DHT22;18221;38.704;0.152;2022-10-03T04:07:06;19.80;99.90
10175;DHT22;18221;38.704;0.152;2022-10-03T04:10:03;19.80;99.90
10175;DHT22;18221;38.704;0.152;2022-10-03T04:13:16;19.90;99.90
10175;DHT22;18221;38.704;0.152;2022-10-03T04:16:31;19.90;99.90
10175;DHT22;18221;38.704;0.152;2022-10-03T04:19:36;19.90;99.90
10175;DHT22;18221;38.704;0.152;2022-10-03T04:22:36;19.90;99.90
10175;DHT22;18221;38.704;0.152;2022-10-03T04:28:42;19.90;99.90
10175;DHT22;18221;38.704;0.152;2022-10-03T04:31:33;19.90;99.90
10175;DHT22;18221;38.704;0.152;2022-10-03T04:34:22;19.80;99.90
10175;DHT22;18221;38.704;0.152;2022-10-03T04:37:23;19.80;99.90
10175;DHT22;18221;38.704;0.152;2022-10-03T04:40:26;19.80;99.90
10175;DHT22;18221;38.704;0.152;2022-10-03T04:43:11;19.80;99.90
10175;DHT22;18221;38.704;0.152;2022-10-03T04:46:14;19.80;99.90
10175;DHT22;18221;38.704;0.152;2022-10-03T04:48:57;19.80;99.90
10175;DHT22;18221;38.704;0.152;2022-10-03T04:51:45;19.70;99.90
10175;DHT22;18221;38.704;0.152;2022-10-03T04:54:25;19.70;99.90
10175;DHT22;18221;38.704;0.152;2022-10-03T04:57:06;19.70;99.90
10175;DHT22;18221;38.704;0.152;2022-10-03T04:59:49;19.70;99.90
10175;DHT22;18221;38.704;0.152;2022-10-03T05:05:39;19.80;99.90
10175;DHT22;18221;38.704;0.152;2022-10-03T05:11:14;19.70;99.90
10175;DHT22;18221;38.704;0.152;2022-10-03T05:13:57;19.80;99.90
10175;DHT22;18221;38.704;0.152;2022-10-03T05:16:39;19.80;99.90
10175;DHT22;18221;38.704;0.152;2022-10-03T05:19:38;19.80;99.90
10175;DHT22;18221;38.704;0.152;2022-10-03T05:22:20;19.80;99.90
10175;DHT22;18221;38.704;0.152;2022-10-03T05:25:09;19.80;99.90
10175;DHT22;18221;38.704;0.152;2022-10-03T05:27:52;19.80;99.90
10175;DHT22;18221;38.704;0.152;2022-10-03T05:30:38;19.90;99.90
10175;DHT22;18221;38.704;0.152;2022-10-03T05:33:23;19.90;99.90
10175;DHT22;18221;38.704;0.152;2022-10-03T05:36:17;19.90;99.90
10175;DHT22;18221;38.704;0.152;2022-10-03T05:39:24;20.00;99.90
10175;DHT22;18221;38.704;0.152;2022-10-03T05:42:02;20.00;99.90
10175;DHT22;18221;38.704;0.152;2022-10-03T05:44:43;20.00;99.90
10175;DHT22;18221;38.704;0.152;2022-10-03T05:47:27;20.00;99.90
10175;DHT22;18221;38.704;0.152;2022-10-03T05:50:48;20.00;99.90
10175;DHT22;18221;38.704;0.152;2022-10-03T05:54:19;20.00;99.90
10175;DHT22;18221;38.704;0.152;2022-10-03T05:57:41;20.10;99.90
10175;DHT22;18221;38.704;0.152;2022-10-03T06:00:32;20.10;99.90
10175;DHT22;18221;38.704;0.152;2022-10-03T06:06:41;20.10;99.90
10175;DHT22;18221;38.704;0.152;2022-10-03T06:09:41;20.10;99.90
10175;DHT22;18221;38.704;0.152;2022-10-03T06:12:42;20.10;99.90
10175;DHT22;18221;38.704;0.152;2022-10-03T06:15:38;20.10;99.90
10175;DHT22;18221;38.704;0.152;2022-10-03T06:18:33;20.20;99.90
10175;DHT22;18221;38.704;0.152;2022-10-03T06:32:09;20.20;99.90
10175;DHT22;18221;38.704;0.152;2022-10-03T06:38:32;20.30;99.90
10175;DHT22;18221;38.704;0.152;2022-10-03T06:42:04;20.30;99.90
10175;DHT22;18221;38.704;0.152;2022-10-03T06:45:15;20.40;99.90
10175;DHT22;18221;38.704;0.152;2022-10-03T06:48:19;20.40;99.90
10175;DHT22;18221;38.704;0.152;2022-10-03T07:01:04;20.60;99.90
10175;DHT22;18221;38.704;0.152;2022-10-03T07:04:09;20.60;99.90
10175;DHT22;18221;38.704;0.152;2022-10-03T07:07:18;20.70;99.90
10175;DHT22;18221;38.704;0.152;2022-10-03T07:10:27;20.70;99.90
10175;DHT22;18221;38.704;0.152;2022-10-03T07:13:29;20.80;99.90
10175;DHT22;18221;38.704;0.152;2022-10-03T07:19:55;20.80;99.90
10175;DHT22;18221;38.704;0.152;2022-10-03T07:23:05;20.80;99.90
10175;DHT22;18221;38.704;0.152;2022-10-03T07:29:41;20.90;99.90
10175;DHT22;18221;38.704;0.152;2022-10-03T07:35:51;21.00;99.90
10175;DHT22;18221;38.704;0.152;2022-10-03T07:39:24;21.00;99.90
10175;DHT22;18221;38.704;0.152;2022-10-03T07:42:40;21.10;99.90
10175;DHT22;18221;38.704;0.152;2022-10-03T07:45:36;21.20;99.90
10175;DHT22;18221;38.704;0.152;2022-10-03T07:51:40;21.30;99.90
10175;DHT22;18221;38.704;0.152;2022-10-03T07:54:41;21.30;99.90
10175;DHT22;18221;38.704;0.152;2022-10-03T07:57:56;21.30;99.90
10175;DHT22;18221;38.704;0.152;2022-10-03T08:04:42;21.40;99.90
10175;DHT22;18221;38.704;0.152;2022-10-03T08:07:42;21.40;99.90
10175;DHT22;18221;38.704;0.152;2022-10-03T08:14:01;21.50;99.90
10175;DHT22;18221;38.704;0.152;2022-10-03T08:17:05;21.50;99.90
10175;DHT22;18221;38.704;0.152;2022-10-03T08:20:05;21.60;99.90
10175;DHT22;18221;38.704;0.152;2022-10-03T08:23:19;21.60;99.90
10175;DHT22;18221;38.704;0.152;2022-10-03T08:26:09;21.70;99.90
10175;DHT22;18221;38.704;0.152;2022-10-03T08:29:00;21.70;99.90
10175;DHT22;18221;38.704;0.152;2022-10-03T08:38:54;21.80;99.90
10175;DHT22;18221;38.704;0.152;2022-10-03T08:45:34;21.80;99.90
10175;DHT22;18221;38.704;0.152;2022-10-03T08:51:57;21.90;99.90
10175;DHT22;18221;38.704;0.152;2022-10-03T08:58:38;21.90;99.90
10175;DHT22;18221;38.704;0.152;2022-10-03T09:01:41;21.90;99.90
10175;DHT22;18221;38.704;0.152;2022-10-03T09:08:39;21.90;99.90
10175;DHT22;18221;38.704;0.152;2022-10-03T09:15:54;21.90;99.90
10175;DHT22;18221;38.704;0.152;2022-10-03T09:22:11;22.00;99.90
10175;DHT22;18221;38.704;0.152;2022-10-03T09:25:21;21.90;99.90
10175;DHT22;18221;38.704;0.152;2022-10-03T09:32:10;22.00;99.90
10175;DHT22;18221;38.704;0.152;2022-10-03T09:35:29;22.00;99.90
10175;DHT22;18221;38.704;0.152;2022-10-03T09:42:05;22.00;99.90
10175;DHT22;18221;38.704;0.152;2022-10-03T09:45:19;22.00;99.90
10175;DHT22;18221;38.704;0.152;2022-10-03T09:48:36;22.00;99.90
10175;DHT22;18221;38.704;0.152;2022-10-03T09:51:46;22.00;99.90
10175;DHT22;18221;38.704;0.152;2022-10-03T09:54:46;22.00;99.90
10175;DHT22;18221;38.704;0.152;2022-10-03T09:57:54;22.10;99.90
10175;DHT22;18221;38.704;0.152;2022-10-03T10:01:13;22.00;99.90
10175;DHT22;18221;38.704;0.152;2022-10-03T10:04:20;22.00;99.90
10175;DHT22;18221;38.704;0.152;2022-10-03T10:11:10;22.20;99.90
10175;DHT22;18221;38.704;0.152;2022-10-03T10:14:13;22.30;99.90
10175;DHT22;18221;38.704;0.152;2022-10-03T10:20:39;22.40;99.90
10175;DHT22;18221;38.704;0.152;2022-10-03T10:23:51;22.50;99.90
10175;DHT22;18221;38.704;0.152;2022-10-03T10:27:02;22.60;99.90
10175;DHT22;18221;38.704;0.152;2022-10-03T10:30:18;22.70;99.90
10175;DHT22;18221;38.704;0.152;2022-10-03T10:44:03;22.60;99.90
10175;DHT22;18221;38.704;0.152;2022-10-03T10:54:43;22.70;99.90
10175;DHT22;18221;38.704;0.152;2022-10-03T11:01:35;22.70;99.90
10175;DHT22;18221;38.704;0.152;2022-10-03T11:05:19;22.70;99.90
10175;DHT22;18221;38.704;0.152;2022-10-03T11:12:27;22.70;99.90
10175;DHT22;18221;38.704;0.152;2022-10-03T11:15:56;22.80;99.90
10175;DHT22;18221;38.704;0.152;2022-10-03T11:19:24;22.90;99.90
10175;DHT22;18221;38.704;0.152;2022-10-03T11:22:51;23.00;99.90
10175;DHT22;18221;38.704;0.152;2022-10-03T11:35:59;23.10;99.90
10175;DHT22;18221;38.704;0.152;2022-10-03T11:38:53;23.40;99.90
10175;DHT22;18221;38.704;0.152;2022-10-03T11:41:38;23.50;99.90
10175;DHT22;18221;38.704;0.152;2022-10-03T11:44:23;23.60;99.90
10175;DHT22;18221;38.704;0.152;2022-10-03T11:47:10;23.70;99.90
10175;DHT22;18221;38.704;0.152;2022-10-03T11:50:30;24.10;99.90
10175;DHT22;18221;38.704;0.152;2022-10-03T11:53:35;24.20;99.90
10175;DHT22;18221;38.704;0.152;2022-10-03T11:56:18;24.30;99.90
10175;DHT22;18221;38.704;0.152;2022-10-03T11:59:18;24.50;99.90
10175;DHT22;18221;38.704;0.152;2022-10-03T12:02:11;24.50;99.90
10175;DHT22;18221;38.704;0.152;2022-10-03T12:04:53;24.50;99.90
10175;DHT22;18221;38.704;0.152;2022-10-03T12:07:47;24.50;99.90
10175;DHT22;18221;38.704;0.152;2022-10-03T12:10:51;24.30;99.90
10175;DHT22;18221;38.704;0.152;2022-10-03T12:13:33;24.30;99.90
10175;DHT22;18221;38.704;0.152;2022-10-03T12:16:09;24.30;99.90
10175;DHT22;18221;38.704;0.152;2022-10-03T12:18:52;24.30;99.90
10175;DHT22;18221;38.704;0.152;2022-10-03T12:21:36;24.30;99.90
10175;DHT22;18221;38.704;0.152;2022-10-03T12:24:22;24.30;99.90
10175;DHT22;18221;38.704;0.152;2022-10-03T12:27:02;24.40;99.90
10175;DHT22;18221;38.704;0.152;2022-10-03T12:29:41;24.50;99.90
10175;DHT22;18221;38.704;0.152;2022-10-03T12:32:22;24.50;99.90
10175;DHT22;18221;38.704;0.152;2022-10-03T12:35:04;24.50;99.90
10175;DHT22;18221;38.704;0.152;2022-10-03T12:37:50;24.50;99.90
10175;DHT22;18221;38.704;0.152;2022-10-03T12:40:32;24.40;99.90
10175;DHT22;18221;38.704;0.152;2022-10-03T12:43:15;24.40;99.90
10175;DHT22;18221;38.704;0.152;2022-10-03T12:45:59;24.40;99.90
10175;DHT22;18221;38.704;0.152;2022-10-03T12:48:41;24.40;99.90
10175;DHT22;18221;38.704;0.152;2022-10-03T12:51:30;24.30;99.90
10175;DHT22;18221;38.704;0.152;2022-10-03T12:54:15;24.30;99.90
10175;DHT22;18221;38.704;0.152;2022-10-03T12:57:09;24.20;99.90
10175;DHT22;18221;38.704;0.152;2022-10-03T13:00:02;24.10;99.90
10175;DHT22;18221;38.704;0.152;2022-10-03T13:02:34;24.00;99.90
10175;DHT22;18221;38.704;0.152;2022-10-03T13:05:34;24.10;99.90
10175;DHT22;18221;38.704;0.152;2022-10-03T13:08:25;24.00;99.90
10175;DHT22;18221;38.704;0.152;2022-10-03T13:11:20;24.00;99.90
10175;DHT22;18221;38.704;0.152;2022-10-03T13:14:11;24.10;99.90
10175;DHT22;18221;38.704;0.152;2022-10-03T13:16:57;24.20;99.90
10175;DHT22;18221;38.704;0.152;2022-10-03T13:19:40;24.20;99.90
10175;DHT22;18221;38.704;0.152;2022-10-03T13:22:30;24.30;99.90
10175;DHT22;18221;38.704;0.152;2022-10-03T13:25:12;24.30;99.90
10175;DHT22;18221;38.704;0.152;2022-10-03T13:27:50;24.20;99.90
10175;DHT22;18221;38.704;0.152;2022-10-03T13:30:29;24.10;99.90
10175;DHT22;18221;38.704;0.152;2022-10-03T13:33:10;24.00;99.90
10175;DHT22;18221;38.704;0.152;2022-10-03T13:35:46;23.80;99.90
10175;DHT22;18221;38.704;0.152;2022-10-03T13:38:58;23.70;99.90
10175;DHT22;18221;38.704;0.152;2022-10-03T13:41:51;23.70;99.90
10175;DHT22;18221;38.704;0.152;2022-10-03T13:44:35;23.60;99.90
10175;DHT22;18221;38.704;0.152;2022-10-03T13:47:22;23.50;99.90
10175;DHT22;18221;38.704;0.152;2022-10-03T13:49:57;23.50;99.90
10175;DHT22;18221;38.704;0.152;2022-10-03T13:52:36;23.50;99.90
10175;DHT22;18221;38.704;0.152;2022-10-03T13:55:17;23.50;99.90
10175;DHT22;18221;38.704;0.152;2022-10-03T13:58:21;23.50;99.90
10175;DHT22;18221;38.704;0.152;2022-10-03T14:01:24;23.50;99.90
10175;DHT22;18221;38.704;0.152;2022-10-03T14:04:19;23.50;99.90
10175;DHT22;18221;38.704;0.152;2022-10-03T14:07:09;23.50;99.90
10175;DHT22;18221;38.704;0.152;2022-10-03T14:10:06;23.50;99.90
10175;DHT22;18221;38.704;0.152;2022-10-03T14:12:51;23.60;99.90
10175;DHT22;18221;38.704;0.152;2022-10-03T14:15:39;23.70;99.90
10175;DHT22;18221;38.704;0.152;2022-10-03T14:18:33;23.70;99.90
10175;DHT22;18221;38.704;0.152;2022-10-03T14:21:33;23.70;99.90
10175;DHT22;18221;38.704;0.152;2022-10-03T14:24:37;23.80;99.90
10175;DHT22;18221;38.704;0.152;2022-10-03T14:27:27;23.70;99.90
10175;DHT22;18221;38.704;0.152;2022-10-03T14:30:04;23.70;99.90
10175;DHT22;18221;38.704;0.152;2022-10-03T14:32:47;23.70;99.90
10175;DHT22;18221;38.704;0.152;2022-10-03T14:35:36;23.70;99.90
10175;DHT22;18221;38.704;0.152;2022-10-03T14:38:26;23.70;99.90
10175;DHT22;18221;38.704;0.152;2022-10-03T14:41:44;23.70;99.90
10175;DHT22;18221;38.704;0.152;2022-10-03T14:44:19;23.70;99.90
10175;DHT22;18221;38.704;0.152;2022-10-03T14:46:53;23.70;99.90
10175;DHT22;18221;38.704;0.152;2022-10-03T14:49:26;23.70;99.90
10175;DHT22;18221;38.704;0.152;2022-10-03T14:52:01;23.70;99.90
10175;DHT22;18221;38.704;0.152;2022-10-03T14:54:35;23.80;99.90
10175;DHT22;18221;38.704;0.152;2022-10-03T14:57:20;23.80;99.90
10175;DHT22;18221;38.704;0.152;2022-10-03T14:59:56;23.80;99.90
10175;DHT22;18221;38.704;0.152;2022-10-03T15:02:29;23.80;99.90
10175;DHT22;18221;38.704;0.152;2022-10-03T15:05:07;23.80;99.90
10175;DHT22;18221;38.704;0.152;2022-10-03T15:07:42;23.80;99.90
10175;DHT22;18221;38.704;0.152;2022-10-03T15:10:17;23.90;99.90
10175;DHT22;18221;38.704;0.152;2022-10-03T15:12:50;23.90;99.90
10175;DHT22;18221;38.704;0.152;2022-10-03T15:15:25;23.90;99.90
10175;DHT22;18221;38.704;0.152;2022-10-03T15:17:57;23.90;99.90
10175;DHT22;18221;38.704;0.152;2022-10-03T15:20:31;23.90;99.90
10175;DHT22;18221;38.704;0.152;2022-10-03T15:23:04;24.00;99.90
10175;DHT22;18221;38.704;0.152;2022-10-03T15:25:37;23.90;99.90
10175;DHT22;18221;38.704;0.152;2022-10-03T15:28:11;23.90;99.90
10175;DHT22;18221;38.704;0.152;2022-10-03T15:30:46;23.90;99.90
10175;DHT22;18221;38.704;0.152;2022-10-03T15:33:22;24.00;99.90
10175;DHT22;18221;38.704;0.152;2022-10-03T15:36:09;23.90;99.90
10175;DHT22;18221;38.704;0.152;2022-10-03T15:38:42;23.90;99.90
10175;DHT22;18221;38.704;0.152;2022-10-03T15:41:21;23.90;99.90
10175;DHT22;18221;38.704;0.152;2022-10-03T15:43:58;23.90;99.90
10175;DHT22;18221;38.704;0.152;2022-10-03T15:46:33;23.90;99.90
10175;DHT22;18221;38.704;0.152;2022-10-03T15:49:06;23.80;99.90
10175;DHT22;18221;38.704;0.152;2022-10-03T15:51:41;23.80;99.90
10175;DHT22;18221;38.704;0.152;2022-10-03T15:54:14;23.80;99.90
10175;DHT22;18221;38.704;0.152;2022-10-03T15:56:52;23.80;99.90
10175;DHT22;18221;38.704;0.152;2022-10-03T15:59:26;23.70;99.90
10175;DHT22;18221;38.704;0.152;2022-10-03T16:02:01;23.70;99.90
10175;DHT22;18221;38.704;0.152;2022-10-03T16:04:35;23.70;99.90
10175;DHT22;18221;38.704;0.152;2022-10-03T16:07:08;23.60;99.90
10175;DHT22;18221;38.704;0.152;2022-10-03T16:09:49;23.70;99.90
10175;DHT22;18221;38.704;0.152;2022-10-03T16:12:49;23.70;99.90
10175;DHT22;18221;38.704;0.152;2022-10-03T16:15:25;23.70;99.90
10175;DHT22;18221;38.704;0.152;2022-10-03T16:18:05;23.70;99.90
10175;DHT22;18221;38.704;0.152;2022-10-03T16:20:39;23.70;99.90
10175;DHT22;18221;38.704;0.152;2022-10-03T16:23:16;23.70;99.90
10175;DHT22;18221;38.704;0.152;2022-10-03T16:25:48;23.60;99.90
10175;DHT22;18221;38.704;0.152;2022-10-03T16:28:24;23.60;99.90
10175;DHT22;18221;38.704;0.152;2022-10-03T16:31:00;23.60;99.90
10175;DHT22;18221;38.704;0.152;2022-10-03T16:33:33;23.50;99.90
10175;DHT22;18221;38.704;0.152;2022-10-03T16:36:06;23.50;99.90
10175;DHT22;18221;38.704;0.152;2022-10-03T16:38:37;23.40;99.90
10175;DHT22;18221;38.704;0.152;2022-10-03T16:41:13;23.40;99.90
10175;DHT22;18221;38.704;0.152;2022-10-03T16:43:55;23.30;99.90
10175;DHT22;18221;38.704;0.152;2022-10-03T16:46:29;23.30;99.90
10175;DHT22;18221;38.704;0.152;2022-10-03T16:49:02;23.20;99.90
10175;DHT22;18221;38.704;0.152;2022-10-03T16:51:58;23.10;99.90
10175;DHT22;18221;38.704;0.152;2022-10-03T16:54:31;23.10;99.90
10175;DHT22;18221;38.704;0.152;2022-10-03T16:57:00;23.00;99.90
10175;DHT22;18221;38.704;0.152;2022-10-03T16:59:36;23.00;99.90
10175;DHT22;18221;38.704;0.152;2022-10-03T17:02:13;23.00;99.90
10175;DHT22;18221;38.704;0.152;2022-10-03T17:04:46;22.90;99.90
10175;DHT22;18221;38.704;0.152;2022-10-03T17:07:17;22.80;99.90
10175;DHT22;18221;38.704;0.152;2022-10-03T17:09:49;22.70;99.90
10175;DHT22;18221;38.704;0.152;2022-10-03T17:12:24;22.80;99.90
10175;DHT22;18221;38.704;0.152;2022-10-03T17:15:04;22.70;99.90
10175;DHT22;18221;38.704;0.152;2022-10-03T17:17:43;22.70;99.90
10175;DHT22;18221;38.704;0.152;2022-10-03T17:20:32;22.70;99.90
10175;DHT22;18221;38.704;0.152;2022-10-03T17:23:10;22.70;99.90
10175;DHT22;18221;38.704;0.152;2022-10-03T17:25:50;22.60;99.90
10175;DHT22;18221;38.704;0.152;2022-10-03T17:28:32;22.60;99.90
10175;DHT22;18221;38.704;0.152;2022-10-03T17:31:26;22.60;99.90
10175;DHT22;18221;38.704;0.152;2022-10-03T17:34:03;22.50;99.90
10175;DHT22;18221;38.704;0.152;2022-10-03T17:36:54;22.40;99.90
10175;DHT22;18221;38.704;0.152;2022-10-03T17:39:49;22.30;99.90
10175;DHT22;18221;38.704;0.152;2022-10-03T17:42:35;22.30;99.90
10175;DHT22;18221;38.704;0.152;2022-10-03T17:45:26;22.30;99.90
10175;DHT22;18221;38.704;0.152;2022-10-03T17:48:09;22.20;99.90
10175;DHT22;18221;38.704;0.152;2022-10-03T17:50:51;22.20;99.90
10175;DHT22;18221;38.704;0.152;2022-10-03T17:53:26;22.20;99.90
10175;DHT22;18221;38.704;0.152;2022-10-03T17:55:59;22.20;99.90
10175;DHT22;18221;38.704;0.152;2022-10-03T17:58:31;22.20;99.90
10175;DHT22;18221;38.704;0.152;2022-10-03T18:01:07;22.10;99.90
10175;DHT22;18221;38.704;0.152;2022-10-03T18:03:46;22.10;99.90
10175;DHT22;18221;38.704;0.152;2022-10-03T18:06:43;22.10;99.90
10175;DHT22;18221;38.704;0.152;2022-10-03T18:09:27;22.00;99.90
10175;DHT22;18221;38.704;0.152;2022-10-03T18:12:13;22.00;99.90
10175;DHT22;18221;38.704;0.152;2022-10-03T18:22:03;22.00;99.90
10175;DHT22;18221;38.704;0.152;2022-10-03T18:24:52;22.00;99.90
10175;DHT22;18221;38.704;0.152;2022-10-03T18:28:10;21.90;99.90
10175;DHT22;18221;38.704;0.152;2022-10-03T18:30:50;21.90;99.90
10175;DHT22;18221;38.704;0.152;2022-10-03T18:33:24;21.90;99.90
10175;DHT22;18221;38.704;0.152;2022-10-03T18:36:07;21.90;99.90
10175;DHT22;18221;38.704;0.152;2022-10-03T18:38:43;21.80;99.90
10175;DHT22;18221;38.704;0.152;2022-10-03T18:41:13;21.80;99.90
10175;DHT22;18221;38.704;0.152;2022-10-03T18:43:44;21.80;99.90
10175;DHT22;18221;38.704;0.152;2022-10-03T18:46:21;21.80;99.90
10175;DHT22;18221;38.704;0.152;2022-10-03T18:48:57;21.80;99.90
10175;DHT22;18221;38.704;0.152;2022-10-03T18:51:35;21.80;99.90
10175;DHT22;18221;38.704;0.152;2022-10-03T18:57:09;21.80;99.90
10175;DHT22;18221;38.704;0.152;2022-10-03T18:59:50;21.80;99.90
10175;DHT22;18221;38.704;0.152;2022-10-03T19:02:25;21.70;99.90
10175;DHT22;18221;38.704;0.152;2022-10-03T19:05:07;21.70;99.90
10175;DHT22;18221;38.704;0.152;2022-10-03T19:07:51;21.70;99.90
10175;DHT22;18221;38.704;0.152;2022-10-03T19:10:31;21.70;99.90
10175;DHT22;18221;38.704;0.152;2022-10-03T19:13:15;21.60;99.90
10175;DHT22;18221;38.704;0.152;2022-10-03T19:16:15;21.70;99.90
10175;DHT22;18221;38.704;0.152;2022-10-03T19:19:00;21.60;99.90
10175;DHT22;18221;38.704;0.152;2022-10-03T19:21:36;21.60;99.90
10175;DHT22;18221;38.704;0.152;2022-10-03T19:24:09;21.60;99.90
10175;DHT22;18221;38.704;0.152;2022-10-03T19:26:45;21.60;99.90
10175;DHT22;18221;38.704;0.152;2022-10-03T19:29:20;21.50;99.90
10175;DHT22;18221;38.704;0.152;2022-10-03T19:31:58;21.50;99.90
10175;DHT22;18221;38.704;0.152;2022-10-03T19:34:34;21.60;99.90
10175;DHT22;18221;38.704;0.152;2022-10-03T19:37:08;21.60;99.90
10175;DHT22;18221;38.704;0.152;2022-10-03T19:39:43;21.50;99.90
10175;DHT22;18221;38.704;0.152;2022-10-03T19:42:26;21.50;99.90
10175;DHT22;18221;38.704;0.152;2022-10-03T19:45:01;21.40;99.90
10175;DHT22;18221;38.704;0.152;2022-10-03T19:47:30;21.50;99.90
10175;DHT22;18221;38.704;0.152;2022-10-03T19:50:05;21.50;99.90
10175;DHT22;18221;38.704;0.152;2022-10-03T19:52:43;21.50;99.90
10175;DHT22;18221;38.704;0.152;2022-10-03T19:55:15;21.40;99.90
10175;DHT22;18221;38.704;0.152;2022-10-03T19:57:51;21.40;99.90
10175;DHT22;18221;38.704;0.152;2022-10-03T20:00:24;21.40;99.90
10175;DHT22;18221;38.704;0.152;2022-10-03T20:03:02;21.40;99.90
10175;DHT22;18221;38.704;0.152;2022-10-03T20:05:42;21.40;99.90
10175;DHT22;18221;38.704;0.152;2022-10-03T20:08:22;21.40;99.90
10175;DHT22;18221;38.704;0.152;2022-10-03T20:11:22;21.40;99.90
10175;DHT22;18221;38.704;0.152;2022-10-03T20:14:03;21.50;99.90
10175;DHT22;18221;38.704;0.152;2022-10-03T20:16:39;21.50;99.90
10175;DHT22;18221;38.704;0.152;2022-10-03T20:19:12;21.60;99.90
10175;DHT22;18221;38.704;0.152;2022-10-03T20:21:42;21.60;99.90
10175;DHT22;18221;38.704;0.152;2022-10-03T20:24:22;21.70;99.90
10175;DHT22;18221;38.704;0.152;2022-10-03T20:27:13;21.70;99.90
10175;DHT22;18221;38.704;0.152;2022-10-03T20:30:02;21.70;99.90
10175;DHT22;18221;38.704;0.152;2022-10-03T20:32:45;21.60;99.90
10175;DHT22;18221;38.704;0.152;2022-10-03T20:35:21;21.60;99.90
10175;DHT22;18221;38.704;0.152;2022-10-03T20:37:54;21.60;99.90
10175;DHT22;18221;38.704;0.152;2022-10-03T20:40:33;21.70;99.90
10175;DHT22;18221;38.704;0.152;2022-10-03T20:43:24;21.70;99.90
10175;DHT22;18221;38.704;0.152;2022-10-03T20:46:18;21.70;99.90
10175;DHT22;18221;38.704;0.152;2022-10-03T20:49:23;21.70;99.90
10175;DHT22;18221;38.704;0.152;2022-10-03T20:51:57;21.70;99.90
10175;DHT22;18221;38.704;0.152;2022-10-03T20:54:33;21.70;99.90
10175;DHT22;18221;38.704;0.152;2022-10-03T20:57:14;21.70;99.90